Weather at Andersen Air Force Base

Public forecast

Using degrees Celsius for public forecast. Weather courtesy of forecast.io.

Current aviation weather report (METAR) for Andersen Air Force Base

2024/07/17 12:55 (retrieved 1 hour ago)

PGUA 171255Z AUTO 09012KT 10SM BKN016 28/25 A2989 RMK AO2 SLP112 T02790247

Aviation forecast (TAF) for Andersen Air Force Base

2024/07/17 10:09 (retrieved 4 hours ago)

TAF TAF PGUA 171000Z 1710/1816 08010G15KT 9999 BKN015 QNH2982INS TEMPO 1710/1724 10015G20KT 3200 -SHRA BKN008 TX31/1802Z TN26/1811Z